sensor_id;sensor_type;location;lat;lon;timestamp;P1;durP1;ratioP1;P2;durP2;ratioP2
69523;SDS011;56723;42.694;23.286;2023-04-12T00:01:58;12.57;;;8.33;;
69523;SDS011;56723;42.694;23.286;2023-04-12T00:04:25;11.67;;;8.80;;
69523;SDS011;56723;42.694;23.286;2023-04-12T00:06:54;13.07;;;9.82;;
69523;SDS011;56723;42.694;23.286;2023-04-12T00:09:21;12.37;;;9.43;;
69523;SDS011;56723;42.694;23.286;2023-04-12T00:11:48;12.40;;;8.73;;
69523;SDS011;56723;42.694;23.286;2023-04-12T00:14:16;13.47;;;8.73;;
69523;SDS011;56723;42.694;23.286;2023-04-12T00:16:43;11.70;;;8.00;;
69523;SDS011;56723;42.694;23.286;2023-04-12T00:19:10;13.97;;;10.30;;
69523;SDS011;56723;42.694;23.286;2023-04-12T00:21:37;12.00;;;9.47;;
69523;SDS011;56723;42.694;23.286;2023-04-12T00:24:04;13.43;;;9.57;;
69523;SDS011;56723;42.694;23.286;2023-04-12T00:26:31;13.50;;;9.83;;
69523;SDS011;56723;42.694;23.286;2023-04-12T00:28:58;14.73;;;10.50;;
69523;SDS011;56723;42.694;23.286;2023-04-12T00:31:25;15.63;;;10.33;;
69523;SDS011;56723;42.694;23.286;2023-04-12T00:33:52;12.83;;;8.83;;
69523;SDS011;56723;42.694;23.286;2023-04-12T00:36:19;14.67;;;10.27;;
69523;SDS011;56723;42.694;23.286;2023-04-12T00:38:47;13.60;;;9.43;;
69523;SDS011;56723;42.694;23.286;2023-04-12T00:41:14;14.33;;;9.80;;
69523;SDS011;56723;42.694;23.286;2023-04-12T00:43:41;12.80;;;9.23;;
69523;SDS011;56723;42.694;23.286;2023-04-12T00:46:08;13.33;;;9.97;;
69523;SDS011;56723;42.694;23.286;2023-04-12T00:48:37;13.20;;;10.20;;
69523;SDS011;56723;42.694;23.286;2023-04-12T00:51:05;15.13;;;9.87;;
69523;SDS011;56723;42.694;23.286;2023-04-12T00:53:33;13.23;;;9.83;;
69523;SDS011;56723;42.694;23.286;2023-04-12T00:56:01;12.60;;;9.93;;
69523;SDS011;56723;42.694;23.286;2023-04-12T00:58:29;15.02;;;10.50;;
69523;SDS011;56723;42.694;23.286;2023-04-12T01:00:57;15.43;;;10.80;;
69523;SDS011;56723;42.694;23.286;2023-04-12T01:03:24;15.97;;;10.93;;
69523;SDS011;56723;42.694;23.286;2023-04-12T01:14:21;14.37;;;10.03;;
69523;SDS011;56723;42.694;23.286;2023-04-12T01:17:02;17.37;;;10.90;;
69523;SDS011;56723;42.694;23.286;2023-04-12T01:22:16;16.70;;;10.25;;
69523;SDS011;56723;42.694;23.286;2023-04-12T01:30:00;16.77;;;10.40;;
69523;SDS011;56723;42.694;23.286;2023-04-12T01:32:30;15.37;;;10.90;;
69523;SDS011;56723;42.694;23.286;2023-04-12T01:35:02;16.57;;;11.23;;
69523;SDS011;56723;42.694;23.286;2023-04-12T01:37:33;16.27;;;11.10;;
69523;SDS011;56723;42.694;23.286;2023-04-12T01:40:02;17.67;;;10.95;;
69523;SDS011;56723;42.694;23.286;2023-04-12T01:42:33;15.23;;;10.53;;
69523;SDS011;56723;42.694;23.286;2023-04-12T01:45:01;14.93;;;11.30;;
69523;SDS011;56723;42.694;23.286;2023-04-12T01:47:28;16.57;;;11.20;;
69523;SDS011;56723;42.694;23.286;2023-04-12T01:52:57;18.50;;;12.07;;
69523;SDS011;56723;42.694;23.286;2023-04-12T01:55:31;16.20;;;10.97;;
69523;SDS011;56723;42.694;23.286;2023-04-12T01:58:02;16.03;;;11.43;;
69523;SDS011;56723;42.694;23.286;2023-04-12T02:00:31;17.37;;;11.73;;
69523;SDS011;56723;42.694;23.286;2023-04-12T02:03:01;14.37;;;10.07;;
69523;SDS011;56723;42.694;23.286;2023-04-12T02:05:29;16.43;;;11.60;;
69523;SDS011;56723;42.694;23.286;2023-04-12T02:07:56;16.87;;;11.40;;
69523;SDS011;56723;42.694;23.286;2023-04-12T02:10:30;15.93;;;11.23;;
69523;SDS011;56723;42.694;23.286;2023-04-12T02:13:01;16.27;;;11.30;;
69523;SDS011;56723;42.694;23.286;2023-04-12T02:15:29;15.33;;;11.23;;
69523;SDS011;56723;42.694;23.286;2023-04-12T02:17:58;18.10;;;12.07;;
69523;SDS011;56723;42.694;23.286;2023-04-12T02:20:25;14.00;;;10.57;;
69523;SDS011;56723;42.694;23.286;2023-04-12T02:22:54;16.23;;;10.93;;
69523;SDS011;56723;42.694;23.286;2023-04-12T02:25:21;19.87;;;12.83;;
69523;SDS011;56723;42.694;23.286;2023-04-12T02:27:48;18.23;;;12.83;;
69523;SDS011;56723;42.694;23.286;2023-04-12T02:30:15;17.60;;;12.47;;
69523;SDS011;56723;42.694;23.286;2023-04-12T02:32:48;18.47;;;13.20;;
69523;SDS011;56723;42.694;23.286;2023-04-12T02:35:24;17.30;;;12.47;;
69523;SDS011;56723;42.694;23.286;2023-04-12T02:38:00;16.10;;;12.17;;
69523;SDS011;56723;42.694;23.286;2023-04-12T02:40:29;19.05;;;13.55;;
69523;SDS011;56723;42.694;23.286;2023-04-12T03:34:23;21.77;;;15.37;;
69523;SDS011;56723;42.694;23.286;2023-04-12T03:36:53;22.67;;;15.13;;
69523;SDS011;56723;42.694;23.286;2023-04-12T03:39:35;23.67;;;15.90;;
69523;SDS011;56723;42.694;23.286;2023-04-12T03:42:03;22.42;;;15.57;;
69523;SDS011;56723;42.694;23.286;2023-04-12T03:44:39;22.84;;;14.97;;
69523;SDS011;56723;42.694;23.286;2023-04-12T03:47:10;21.27;;;14.27;;
69523;SDS011;56723;42.694;23.286;2023-04-12T03:49:37;19.47;;;13.53;;
69523;SDS011;56723;42.694;23.286;2023-04-12T03:52:10;19.03;;;13.80;;
69523;SDS011;56723;42.694;23.286;2023-04-12T05:06:48;15.03;;;10.20;;
69523;SDS011;56723;42.694;23.286;2023-04-12T05:09:20;16.70;;;10.60;;
69523;SDS011;56723;42.694;23.286;2023-04-12T05:11:53;16.57;;;11.93;;
69523;SDS011;56723;42.694;23.286;2023-04-12T05:14:22;17.52;;;11.60;;
69523;SDS011;56723;42.694;23.286;2023-04-12T05:16:49;13.43;;;9.60;;
69523;SDS011;56723;42.694;23.286;2023-04-12T05:19:16;12.97;;;9.00;;
69523;SDS011;56723;42.694;23.286;2023-04-12T05:21:43;12.87;;;8.80;;
69523;SDS011;56723;42.694;23.286;2023-04-12T05:24:10;11.63;;;8.00;;
69523;SDS011;56723;42.694;23.286;2023-04-12T05:26:39;12.93;;;9.05;;
69523;SDS011;56723;42.694;23.286;2023-04-12T05:29:11;13.57;;;8.47;;
69523;SDS011;56723;42.694;23.286;2023-04-12T05:31:39;12.87;;;7.57;;
69523;SDS011;56723;42.694;23.286;2023-04-12T05:34:14;11.60;;;7.97;;
69523;SDS011;56723;42.694;23.286;2023-04-12T06:26:14;7.07;;;4.87;;
69523;SDS011;56723;42.694;23.286;2023-04-12T06:28:44;8.30;;;5.40;;
69523;SDS011;56723;42.694;23.286;2023-04-12T06:31:12;5.67;;;4.33;;
69523;SDS011;56723;42.694;23.286;2023-04-12T06:33:40;8.57;;;4.37;;
69523;SDS011;56723;42.694;23.286;2023-04-12T06:36:09;6.00;;;4.50;;
69523;SDS011;56723;42.694;23.286;2023-04-12T06:38:37;8.17;;;4.33;;
69523;SDS011;56723;42.694;23.286;2023-04-12T06:41:05;6.77;;;4.40;;
69523;SDS011;56723;42.694;23.286;2023-04-12T06:43:32;5.67;;;4.30;;
69523;SDS011;56723;42.694;23.286;2023-04-12T06:45:59;5.03;;;3.13;;
69523;SDS011;56723;42.694;23.286;2023-04-12T06:48:30;7.17;;;3.17;;
69523;SDS011;56723;42.694;23.286;2023-04-12T06:50:57;3.83;;;2.80;;
69523;SDS011;56723;42.694;23.286;2023-04-12T06:53:24;4.00;;;2.93;;
69523;SDS011;56723;42.694;23.286;2023-04-12T06:55:51;5.43;;;3.50;;
69523;SDS011;56723;42.694;23.286;2023-04-12T06:58:19;6.83;;;4.10;;
69523;SDS011;56723;42.694;23.286;2023-04-12T07:00:46;5.73;;;3.33;;
69523;SDS011;56723;42.694;23.286;2023-04-12T07:03:13;7.00;;;4.30;;
69523;SDS011;56723;42.694;23.286;2023-04-12T07:05:41;4.83;;;3.47;;
69523;SDS011;56723;42.694;23.286;2023-04-12T07:08:08;3.70;;;2.80;;
69523;SDS011;56723;42.694;23.286;2023-04-12T07:10:35;5.27;;;2.73;;
69523;SDS011;56723;42.694;23.286;2023-04-12T07:13:03;3.97;;;2.50;;
69523;SDS011;56723;42.694;23.286;2023-04-12T07:15:33;3.47;;;2.80;;
69523;SDS011;56723;42.694;23.286;2023-04-12T07:18:00;4.53;;;3.30;;
69523;SDS011;56723;42.694;23.286;2023-04-12T07:20:27;5.47;;;4.00;;
69523;SDS011;56723;42.694;23.286;2023-04-12T07:22:55;9.70;;;5.77;;
69523;SDS011;56723;42.694;23.286;2023-04-12T07:25:21;6.80;;;3.83;;
69523;SDS011;56723;42.694;23.286;2023-04-12T07:27:48;3.87;;;3.57;;
69523;SDS011;56723;42.694;23.286;2023-04-12T07:30:17;4.70;;;3.93;;
69523;SDS011;56723;42.694;23.286;2023-04-12T07:32:44;4.03;;;3.63;;
69523;SDS011;56723;42.694;23.286;2023-04-12T07:35:11;5.37;;;3.80;;
69523;SDS011;56723;42.694;23.286;2023-04-12T07:37:38;5.27;;;3.30;;
69523;SDS011;56723;42.694;23.286;2023-04-12T07:40:06;3.00;;;2.33;;
69523;SDS011;56723;42.694;23.286;2023-04-12T07:42:34;4.07;;;3.43;;
69523;SDS011;56723;42.694;23.286;2023-04-12T07:45:02;4.07;;;2.70;;
69523;SDS011;56723;42.694;23.286;2023-04-12T07:47:30;4.13;;;2.03;;
69523;SDS011;56723;42.694;23.286;2023-04-12T07:49:58;3.42;;;2.00;;
69523;SDS011;56723;42.694;23.286;2023-04-12T07:52:25;1.83;;;1.40;;
69523;SDS011;56723;42.694;23.286;2023-04-12T07:54:52;2.28;;;1.85;;
69523;SDS011;56723;42.694;23.286;2023-04-12T07:57:20;2.92;;;1.73;;
69523;SDS011;56723;42.694;23.286;2023-04-12T07:59:49;3.75;;;1.92;;
69523;SDS011;56723;42.694;23.286;2023-04-12T08:02:16;2.58;;;1.52;;
69523;SDS011;56723;42.694;23.286;2023-04-12T08:05:01;2.72;;;1.40;;
69523;SDS011;56723;42.694;23.286;2023-04-12T08:07:28;3.25;;;1.58;;
69523;SDS011;56723;42.694;23.286;2023-04-12T08:09:55;2.17;;;1.45;;
69523;SDS011;56723;42.694;23.286;2023-04-12T08:12:22;3.38;;;2.50;;
69523;SDS011;56723;42.694;23.286;2023-04-12T08:14:49;3.60;;;1.80;;
69523;SDS011;56723;42.694;23.286;2023-04-12T08:17:16;3.35;;;1.48;;
69523;SDS011;56723;42.694;23.286;2023-04-12T08:19:43;2.58;;;1.63;;
69523;SDS011;56723;42.694;23.286;2023-04-12T08:22:10;3.25;;;1.40;;
69523;SDS011;56723;42.694;23.286;2023-04-12T08:24:39;6.55;;;1.30;;
69523;SDS011;56723;42.694;23.286;2023-04-12T08:27:06;2.17;;;1.17;;
69523;SDS011;56723;42.694;23.286;2023-04-12T08:29:33;4.57;;;1.13;;
69523;SDS011;56723;42.694;23.286;2023-04-12T08:32:02;1.88;;;1.17;;
69523;SDS011;56723;42.694;23.286;2023-04-12T08:34:30;1.75;;;1.05;;
69523;SDS011;56723;42.694;23.286;2023-04-12T08:36:58;4.85;;;2.53;;
69523;SDS011;56723;42.694;23.286;2023-04-12T08:39:26;3.72;;;2.38;;
69523;SDS011;56723;42.694;23.286;2023-04-12T08:41:53;2.97;;;0.90;;
69523;SDS011;56723;42.694;23.286;2023-04-12T08:44:26;2.28;;;1.00;;
69523;SDS011;56723;42.694;23.286;2023-04-12T08:47:02;4.75;;;2.03;;
69523;SDS011;56723;42.694;23.286;2023-04-12T08:49:33;9.57;;;4.43;;
69523;SDS011;56723;42.694;23.286;2023-04-12T08:52:04;51.92;;;28.98;;
69523;SDS011;56723;42.694;23.286;2023-04-12T08:54:34;3.65;;;1.63;;
69523;SDS011;56723;42.694;23.286;2023-04-12T08:57:05;11.35;;;5.68;;
69523;SDS011;56723;42.694;23.286;2023-04-12T08:59:36;22.67;;;9.52;;
69523;SDS011;56723;42.694;23.286;2023-04-12T09:02:04;23.48;;;10.38;;
69523;SDS011;56723;42.694;23.286;2023-04-12T09:04:32;40.28;;;19.65;;
69523;SDS011;56723;42.694;23.286;2023-04-12T09:07:00;7.38;;;2.90;;
69523;SDS011;56723;42.694;23.286;2023-04-12T09:09:41;4.38;;;2.22;;
69523;SDS011;56723;42.694;23.286;2023-04-12T09:12:12;50.13;;;26.83;;
69523;SDS011;56723;42.694;23.286;2023-04-12T09:17:26;4.70;;;3.17;;
69523;SDS011;56723;42.694;23.286;2023-04-12T09:19:54;5.32;;;1.02;;
69523;SDS011;56723;42.694;23.286;2023-04-12T09:22:40;1.58;;;0.57;;
69523;SDS011;56723;42.694;23.286;2023-04-12T09:25:12;4.57;;;0.98;;
69523;SDS011;56723;42.694;23.286;2023-04-12T09:27:51;1.60;;;0.63;;
69523;SDS011;56723;42.694;23.286;2023-04-12T09:30:19;2.15;;;0.55;;
69523;SDS011;56723;42.694;23.286;2023-04-12T09:32:46;3.67;;;0.70;;
69523;SDS011;56723;42.694;23.286;2023-04-12T09:35:17;2.97;;;0.40;;
69523;SDS011;56723;42.694;23.286;2023-04-12T09:37:44;2.92;;;0.40;;
69523;SDS011;56723;42.694;23.286;2023-04-12T09:40:11;1.92;;;0.40;;
69523;SDS011;56723;42.694;23.286;2023-04-12T09:42:49;2.40;;;0.50;;
69523;SDS011;56723;42.694;23.286;2023-04-12T09:47:47;3.00;;;0.50;;
69523;SDS011;56723;42.694;23.286;2023-04-12T09:50:33;2.22;;;1.00;;
69523;SDS011;56723;42.694;23.286;2023-04-12T09:53:00;0.95;;;0.47;;
69523;SDS011;56723;42.694;23.286;2023-04-12T09:55:29;2.45;;;0.40;;
69523;SDS011;56723;42.694;23.286;2023-04-12T10:00:30;1.30;;;0.40;;
69523;SDS011;56723;42.694;23.286;2023-04-12T10:03:00;2.65;;;0.30;;
69523;SDS011;56723;42.694;23.286;2023-04-12T10:05:28;1.70;;;0.40;;
69523;SDS011;56723;42.694;23.286;2023-04-12T10:07:59;2.03;;;0.30;;
69523;SDS011;56723;42.694;23.286;2023-04-12T10:10:29;2.15;;;0.20;;
69523;SDS011;56723;42.694;23.286;2023-04-12T10:12:56;5.95;;;0.47;;
69523;SDS011;56723;42.694;23.286;2023-04-12T10:15:24;1.10;;;0.28;;
69523;SDS011;56723;42.694;23.286;2023-04-12T10:17:55;0.80;;;0.25;;
69523;SDS011;56723;42.694;23.286;2023-04-12T10:20:23;2.05;;;0.40;;
69523;SDS011;56723;42.694;23.286;2023-04-12T10:22:54;2.97;;;0.30;;
69523;SDS011;56723;42.694;23.286;2023-04-12T10:27:52;1.00;;;0.20;;
69523;SDS011;56723;42.694;23.286;2023-04-12T10:30:23;0.80;;;0.30;;
69523;SDS011;56723;42.694;23.286;2023-04-12T10:33:14;1.90;;;0.30;;
69523;SDS011;56723;42.694;23.286;2023-04-12T10:38:17;1.10;;;0.30;;
69523;SDS011;56723;42.694;23.286;2023-04-12T10:43:33;2.97;;;0.45;;
69523;SDS011;56723;42.694;23.286;2023-04-12T10:46:00;1.00;;;0.30;;
69523;SDS011;56723;42.694;23.286;2023-04-12T10:48:38;1.85;;;0.47;;
69523;SDS011;56723;42.694;23.286;2023-04-12T10:51:23;0.60;;;0.30;;
69523;SDS011;56723;42.694;23.286;2023-04-12T10:56:44;2.45;;;0.30;;
69523;SDS011;56723;42.694;23.286;2023-04-12T10:59:24;3.17;;;0.32;;
69523;SDS011;56723;42.694;23.286;2023-04-12T11:04:33;1.70;;;0.20;;
69523;SDS011;56723;42.694;23.286;2023-04-12T11:07:07;1.50;;;0.20;;
69523;SDS011;56723;42.694;23.286;2023-04-12T11:09:39;1.38;;;0.20;;
69523;SDS011;56723;42.694;23.286;2023-04-12T11:12:17;1.85;;;0.30;;
69523;SDS011;56723;42.694;23.286;2023-04-12T11:14:47;2.63;;;0.32;;
69523;SDS011;56723;42.694;23.286;2023-04-12T11:17:19;3.80;;;0.30;;
69523;SDS011;56723;42.694;23.286;2023-04-12T11:22:22;2.80;;;0.20;;
69523;SDS011;56723;42.694;23.286;2023-04-12T11:24:51;1.92;;;0.20;;
69523;SDS011;56723;42.694;23.286;2023-04-12T11:27:20;1.63;;;0.30;;
69523;SDS011;56723;42.694;23.286;2023-04-12T11:29:49;1.48;;;0.20;;
69523;SDS011;56723;42.694;23.286;2023-04-12T11:32:19;1.50;;;0.20;;
69523;SDS011;56723;42.694;23.286;2023-04-12T11:37:15;2.58;;;0.28;;
69523;SDS011;56723;42.694;23.286;2023-04-12T11:39:44;2.17;;;0.32;;
69523;SDS011;56723;42.694;23.286;2023-04-12T11:42:13;1.60;;;0.20;;
69523;SDS011;56723;42.694;23.286;2023-04-12T11:44:45;0.93;;;0.20;;
69523;SDS011;56723;42.694;23.286;2023-04-12T11:47:24;0.90;;;0.30;;
69523;SDS011;56723;42.694;23.286;2023-04-12T11:49:53;1.08;;;0.30;;
69523;SDS011;56723;42.694;23.286;2023-04-12T11:52:28;1.40;;;0.30;;
69523;SDS011;56723;42.694;23.286;2023-04-12T11:55:01;1.75;;;0.20;;
69523;SDS011;56723;42.694;23.286;2023-04-12T11:57:32;1.35;;;0.10;;
69523;SDS011;56723;42.694;23.286;2023-04-12T12:00:00;1.50;;;0.25;;
69523;SDS011;56723;42.694;23.286;2023-04-12T12:02:37;1.13;;;0.20;;
69523;SDS011;56723;42.694;23.286;2023-04-12T12:05:21;0.73;;;0.20;;
69523;SDS011;56723;42.694;23.286;2023-04-12T12:07:53;1.58;;;0.38;;
69523;SDS011;56723;42.694;23.286;2023-04-12T12:10:21;2.60;;;0.20;;
69523;SDS011;56723;42.694;23.286;2023-04-12T12:13:11;1.95;;;0.40;;
69523;SDS011;56723;42.694;23.286;2023-04-12T12:15:42;3.00;;;0.30;;
69523;SDS011;56723;42.694;23.286;2023-04-12T12:18:10;2.28;;;0.30;;
69523;SDS011;56723;42.694;23.286;2023-04-12T12:20:41;1.42;;;0.20;;
69523;SDS011;56723;42.694;23.286;2023-04-12T12:23:30;1.25;;;0.20;;
69523;SDS011;56723;42.694;23.286;2023-04-12T12:25:58;0.75;;;0.13;;
69523;SDS011;56723;42.694;23.286;2023-04-12T12:28:47;1.35;;;0.20;;
69523;SDS011;56723;42.694;23.286;2023-04-12T12:31:17;8.45;;;4.05;;
69523;SDS011;56723;42.694;23.286;2023-04-12T12:33:46;6.13;;;2.80;;
69523;SDS011;56723;42.694;23.286;2023-04-12T12:36:17;2.72;;;0.70;;
69523;SDS011;56723;42.694;23.286;2023-04-12T12:38:46;2.47;;;0.38;;
69523;SDS011;56723;42.694;23.286;2023-04-12T12:41:15;2.63;;;1.92;;
69523;SDS011;56723;42.694;23.286;2023-04-12T12:43:46;0.90;;;0.20;;
69523;SDS011;56723;42.694;23.286;2023-04-12T12:46:14;1.08;;;0.20;;
69523;SDS011;56723;42.694;23.286;2023-04-12T12:48:44;1.42;;;0.30;;
69523;SDS011;56723;42.694;23.286;2023-04-12T12:51:13;2.28;;;0.22;;
69523;SDS011;56723;42.694;23.286;2023-04-12T12:53:45;1.02;;;0.20;;
69523;SDS011;56723;42.694;23.286;2023-04-12T12:56:12;2.13;;;0.20;;
69523;SDS011;56723;42.694;23.286;2023-04-12T12:58:40;1.70;;;0.47;;
69523;SDS011;56723;42.694;23.286;2023-04-12T13:01:09;1.60;;;1.13;;
69523;SDS011;56723;42.694;23.286;2023-04-12T13:03:37;2.25;;;1.02;;
69523;SDS011;56723;42.694;23.286;2023-04-12T13:06:04;2.70;;;2.13;;
69523;SDS011;56723;42.694;23.286;2023-04-12T13:08:32;3.22;;;0.68;;
69523;SDS011;56723;42.694;23.286;2023-04-12T13:11:00;6.22;;;4.00;;
69523;SDS011;56723;42.694;23.286;2023-04-12T13:13:28;2.20;;;0.95;;
69523;SDS011;56723;42.694;23.286;2023-04-12T13:15:55;1.98;;;0.50;;
69523;SDS011;56723;42.694;23.286;2023-04-12T13:18:25;1.20;;;0.28;;
69523;SDS011;56723;42.694;23.286;2023-04-12T13:20:52;1.00;;;0.30;;
69523;SDS011;56723;42.694;23.286;2023-04-12T13:23:19;1.95;;;0.30;;
69523;SDS011;56723;42.694;23.286;2023-04-12T13:25:46;1.30;;;0.50;;
69523;SDS011;56723;42.694;23.286;2023-04-12T13:28:13;3.17;;;0.57;;
69523;SDS011;56723;42.694;23.286;2023-04-12T13:30:42;3.22;;;0.50;;
69523;SDS011;56723;42.694;23.286;2023-04-12T13:33:09;0.90;;;0.20;;
69523;SDS011;56723;42.694;23.286;2023-04-12T13:35:42;3.30;;;0.20;;
69523;SDS011;56723;42.694;23.286;2023-04-12T13:38:10;1.00;;;0.17;;
69523;SDS011;56723;42.694;23.286;2023-04-12T13:40:37;0.95;;;0.20;;
69523;SDS011;56723;42.694;23.286;2023-04-12T13:43:04;1.58;;;0.30;;
69523;SDS011;56723;42.694;23.286;2023-04-12T13:45:33;1.73;;;0.20;;
69523;SDS011;56723;42.694;23.286;2023-04-12T13:48:00;3.42;;;0.28;;
69523;SDS011;56723;42.694;23.286;2023-04-12T13:50:27;3.60;;;0.40;;
69523;SDS011;56723;42.694;23.286;2023-04-12T13:52:54;2.00;;;0.57;;
69523;SDS011;56723;42.694;23.286;2023-04-12T13:55:21;0.73;;;0.20;;
69523;SDS011;56723;42.694;23.286;2023-04-12T13:57:50;1.15;;;0.30;;
69523;SDS011;56723;42.694;23.286;2023-04-12T14:00:17;1.20;;;0.20;;
69523;SDS011;56723;42.694;23.286;2023-04-12T14:02:45;1.42;;;0.20;;
69523;SDS011;56723;42.694;23.286;2023-04-12T14:05:12;0.70;;;0.20;;
69523;SDS011;56723;42.694;23.286;2023-04-12T14:07:39;1.10;;;0.30;;
69523;SDS011;56723;42.694;23.286;2023-04-12T14:10:06;1.15;;;0.30;;
69523;SDS011;56723;42.694;23.286;2023-04-12T14:12:33;1.88;;;0.60;;
69523;SDS011;56723;42.694;23.286;2023-04-12T14:15:00;0.82;;;0.20;;
69523;SDS011;56723;42.694;23.286;2023-04-12T14:17:29;1.20;;;0.20;;
69523;SDS011;56723;42.694;23.286;2023-04-12T14:22:26;2.33;;;0.28;;
69523;SDS011;56723;42.694;23.286;2023-04-12T14:24:53;1.30;;;0.30;;
69523;SDS011;56723;42.694;23.286;2023-04-12T14:27:20;2.00;;;0.25;;
69523;SDS011;56723;42.694;23.286;2023-04-12T14:29:48;3.17;;;0.65;;
69523;SDS011;56723;42.694;23.286;2023-04-12T14:32:15;1.35;;;0.20;;
69523;SDS011;56723;42.694;23.286;2023-04-12T14:34:42;1.73;;;0.35;;
69523;SDS011;56723;42.694;23.286;2023-04-12T14:37:09;2.25;;;0.60;;
69523;SDS011;56723;42.694;23.286;2023-04-12T14:39:36;3.20;;;1.15;;
69523;SDS011;56723;42.694;23.286;2023-04-12T14:42:04;1.42;;;0.50;;
69523;SDS011;56723;42.694;23.286;2023-04-12T14:44:31;1.20;;;0.30;;
69523;SDS011;56723;42.694;23.286;2023-04-12T14:46:58;2.38;;;0.22;;
69523;SDS011;56723;42.694;23.286;2023-04-12T14:49:26;1.92;;;0.32;;
69523;SDS011;56723;42.694;23.286;2023-04-12T14:51:56;2.35;;;0.40;;
69523;SDS011;56723;42.694;23.286;2023-04-12T14:54:23;1.33;;;0.32;;
69523;SDS011;56723;42.694;23.286;2023-04-12T14:56:50;2.40;;;0.47;;
69523;SDS011;56723;42.694;23.286;2023-04-12T14:59:21;2.47;;;0.47;;
69523;SDS011;56723;42.694;23.286;2023-04-12T15:01:49;1.73;;;0.47;;
69523;SDS011;56723;42.694;23.286;2023-04-12T15:04:18;5.65;;;0.40;;
69523;SDS011;56723;42.694;23.286;2023-04-12T15:06:45;5.95;;;2.95;;
69523;SDS011;56723;42.694;23.286;2023-04-12T15:09:13;2.33;;;0.70;;
69523;SDS011;56723;42.694;23.286;2023-04-12T15:11:41;21.83;;;12.88;;
69523;SDS011;56723;42.694;23.286;2023-04-12T15:14:12;1.25;;;0.43;;
69523;SDS011;56723;42.694;23.286;2023-04-12T15:16:46;1.13;;;0.20;;
69523;SDS011;56723;42.694;23.286;2023-04-12T15:19:16;1.35;;;0.55;;
69523;SDS011;56723;42.694;23.286;2023-04-12T15:21:49;1.00;;;0.30;;
69523;SDS011;56723;42.694;23.286;2023-04-12T15:24:22;2.05;;;0.38;;
69523;SDS011;56723;42.694;23.286;2023-04-12T15:26:50;2.55;;;0.43;;
69523;SDS011;56723;42.694;23.286;2023-04-12T15:29:19;2.10;;;0.30;;
69523;SDS011;56723;42.694;23.286;2023-04-12T15:31:46;3.90;;;0.30;;
69523;SDS011;56723;42.694;23.286;2023-04-12T15:34:14;1.15;;;0.40;;
69523;SDS011;56723;42.694;23.286;2023-04-12T15:36:41;1.33;;;0.35;;
69523;SDS011;56723;42.694;23.286;2023-04-12T15:39:10;2.10;;;0.40;;
69523;SDS011;56723;42.694;23.286;2023-04-12T15:41:38;1.30;;;0.35;;
69523;SDS011;56723;42.694;23.286;2023-04-12T15:44:06;1.23;;;0.30;;
69523;SDS011;56723;42.694;23.286;2023-04-12T15:46:36;1.13;;;0.20;;
69523;SDS011;56723;42.694;23.286;2023-04-12T15:49:03;0.68;;;0.20;;
69523;SDS011;56723;42.694;23.286;2023-04-12T15:51:31;1.30;;;0.20;;
69523;SDS011;56723;42.694;23.286;2023-04-12T15:53:57;1.45;;;0.30;;
69523;SDS011;56723;42.694;23.286;2023-04-12T15:56:25;1.92;;;1.10;;
69523;SDS011;56723;42.694;23.286;2023-04-12T15:58:52;2.33;;;0.40;;
69523;SDS011;56723;42.694;23.286;2023-04-12T16:01:23;2.05;;;0.30;;
69523;SDS011;56723;42.694;23.286;2023-04-12T16:03:51;2.17;;;0.38;;
69523;SDS011;56723;42.694;23.286;2023-04-12T16:06:20;2.88;;;0.38;;
69523;SDS011;56723;42.694;23.286;2023-04-12T16:08:52;1.73;;;0.73;;
69523;SDS011;56723;42.694;23.286;2023-04-12T16:11:23;1.67;;;0.40;;
69523;SDS011;56723;42.694;23.286;2023-04-12T16:13:50;2.08;;;0.50;;
69523;SDS011;56723;42.694;23.286;2023-04-12T16:16:19;1.50;;;0.60;;
69523;SDS011;56723;42.694;23.286;2023-04-12T16:18:55;2.53;;;0.60;;
69523;SDS011;56723;42.694;23.286;2023-04-12T16:21:26;2.08;;;0.60;;
69523;SDS011;56723;42.694;23.286;2023-04-12T16:23:53;2.95;;;0.88;;
69523;SDS011;56723;42.694;23.286;2023-04-12T16:26:29;2.15;;;0.73;;
69523;SDS011;56723;42.694;23.286;2023-04-12T16:28:56;8.50;;;2.92;;
69523;SDS011;56723;42.694;23.286;2023-04-12T16:31:24;8.30;;;3.55;;
69523;SDS011;56723;42.694;23.286;2023-04-12T16:33:52;16.42;;;10.20;;
69523;SDS011;56723;42.694;23.286;2023-04-12T16:36:19;11.75;;;7.78;;
69523;SDS011;56723;42.694;23.286;2023-04-12T16:38:49;3.83;;;1.70;;
69523;SDS011;56723;42.694;23.286;2023-04-12T16:41:20;8.18;;;4.93;;
69523;SDS011;56723;42.694;23.286;2023-04-12T16:43:47;4.15;;;0.95;;
69523;SDS011;56723;42.694;23.286;2023-04-12T16:46:18;4.80;;;1.60;;
69523;SDS011;56723;42.694;23.286;2023-04-12T16:48:49;5.05;;;2.08;;
69523;SDS011;56723;42.694;23.286;2023-04-12T16:51:16;5.00;;;2.08;;
69523;SDS011;56723;42.694;23.286;2023-04-12T16:53:43;4.43;;;1.70;;
69523;SDS011;56723;42.694;23.286;2023-04-12T16:56:10;3.03;;;0.88;;
69523;SDS011;56723;42.694;23.286;2023-04-12T16:58:37;4.05;;;0.82;;
69523;SDS011;56723;42.694;23.286;2023-04-12T17:01:04;2.72;;;0.73;;
69523;SDS011;56723;42.694;23.286;2023-04-12T17:03:31;3.88;;;1.75;;
69523;SDS011;56723;42.694;23.286;2023-04-12T17:05:58;4.90;;;1.60;;
69523;SDS011;56723;42.694;23.286;2023-04-12T17:08:25;4.93;;;1.60;;
69523;SDS011;56723;42.694;23.286;2023-04-12T17:10:52;5.25;;;1.75;;
69523;SDS011;56723;42.694;23.286;2023-04-12T17:13:20;4.68;;;1.40;;
69523;SDS011;56723;42.694;23.286;2023-04-12T17:15:50;3.05;;;1.20;;
69523;SDS011;56723;42.694;23.286;2023-04-12T17:18:17;4.53;;;0.98;;
69523;SDS011;56723;42.694;23.286;2023-04-12T17:20:44;3.30;;;1.35;;
69523;SDS011;56723;42.694;23.286;2023-04-12T17:23:12;2.85;;;1.45;;
69523;SDS011;56723;42.694;23.286;2023-04-12T17:25:39;3.30;;;0.85;;
69523;SDS011;56723;42.694;23.286;2023-04-12T17:28:07;2.90;;;1.23;;
69523;SDS011;56723;42.694;23.286;2023-04-12T17:30:35;5.78;;;2.42;;
69523;SDS011;56723;42.694;23.286;2023-04-12T17:33:01;4.88;;;2.17;;
69523;SDS011;56723;42.694;23.286;2023-04-12T17:35:29;5.70;;;3.65;;
69523;SDS011;56723;42.694;23.286;2023-04-12T17:37:56;8.75;;;4.90;;
69523;SDS011;56723;42.694;23.286;2023-04-12T17:40:23;5.53;;;3.50;;
69523;SDS011;56723;42.694;23.286;2023-04-12T17:42:51;7.68;;;4.18;;
69523;SDS011;56723;42.694;23.286;2023-04-12T17:45:18;9.67;;;4.53;;
69523;SDS011;56723;42.694;23.286;2023-04-12T17:47:47;10.15;;;5.68;;
69523;SDS011;56723;42.694;23.286;2023-04-12T17:50:14;13.50;;;5.37;;
69523;SDS011;56723;42.694;23.286;2023-04-12T17:52:41;14.68;;;8.27;;
69523;SDS011;56723;42.694;23.286;2023-04-12T17:55:09;14.20;;;7.10;;
69523;SDS011;56723;42.694;23.286;2023-04-12T17:57:38;13.75;;;6.35;;
69523;SDS011;56723;42.694;23.286;2023-04-12T18:00:05;10.13;;;6.03;;
69523;SDS011;56723;42.694;23.286;2023-04-12T18:02:41;9.57;;;5.63;;
69523;SDS011;56723;42.694;23.286;2023-04-12T18:05:10;11.37;;;6.10;;
69523;SDS011;56723;42.694;23.286;2023-04-12T18:07:38;13.17;;;6.63;;
69523;SDS011;56723;42.694;23.286;2023-04-12T18:10:09;14.87;;;7.60;;
69523;SDS011;56723;42.694;23.286;2023-04-12T18:12:38;13.00;;;9.47;;
69523;SDS011;56723;42.694;23.286;2023-04-12T18:15:06;6.70;;;5.03;;
69523;SDS011;56723;42.694;23.286;2023-04-12T18:17:34;7.87;;;4.60;;
69523;SDS011;56723;42.694;23.286;2023-04-12T18:20:01;7.70;;;5.03;;
69523;SDS011;56723;42.694;23.286;2023-04-12T18:22:30;10.77;;;5.07;;